Time;durP1;ratioP1;P1;durP2;ratioP2;P2;SDS_P1;SDS_P2;PMS_P1;PMS_P2;Temp;Humidity;BMP_temperature;BMP_pressure;BME280_temperature;BME280_humidity;BME280_pressure;Samples;Min_cycle;Max_cycle;Signal;HPM_P1;HPM_P2
2022/10/01 00:02:24;;;;;;;10.25;8.68;;;11.20;99.90;;;;;;4891754;29;20083;-66
2022/10/01 00:04:50;;;;;;;12.95;9.60;;;11.10;99.90;;;;;;4883006;29;20057;-67
2022/10/01 00:07:16;;;;;;;13.93;8.85;;;11.20;99.90;;;;;;4898103;29;20454;-66
2022/10/01 00:09:41;;;;;;;11.82;8.98;;;11.10;99.90;;;;;;4898820;29;20128;-65
2022/10/01 00:12:07;;;;;;;14.20;10.68;;;11.10;99.90;;;;;;4881329;29;20177;-66
2022/10/01 00:14:33;;;;;;;10.15;8.57;;;11.10;99.90;;;;;;4900059;29;20415;-68
2022/10/01 00:16:58;;;;;;;15.40;10.07;;;11.00;99.90;;;;;;4880958;29;20057;-66
2022/10/01 00:19:24;;;;;;;14.32;9.82;;;11.00;99.90;;;;;;4898178;29;20044;-67
2022/10/01 00:21:50;;;;;;;16.10;10.63;;;11.00;99.90;;;;;;4891811;29;20523;-66
2022/10/01 00:24:15;;;;;;;14.48;10.88;;;11.00;99.90;;;;;;4899742;29;20044;-65
2022/10/01 00:26:41;;;;;;;16.17;10.93;;;10.90;99.90;;;;;;4890685;29;20076;-66
2022/10/01 00:29:11;;;;;;;14.45;10.90;;;10.90;99.90;;;;;;4879233;29;20067;-67
2022/10/01 00:31:40;;;;;;;12.85;10.27;;;10.90;99.90;;;;;;4898109;29;20139;-65
2022/10/01 00:34:05;;;;;;;17.27;11.57;;;11.10;99.90;;;;;;4896421;29;20052;-66
2022/10/01 00:36:33;;;;;;;19.45;12.45;;;10.90;99.90;;;;;;4896643;29;20067;-68
2022/10/01 00:39:01;;;;;;;17.45;11.55;;;10.90;99.90;;;;;;4881522;29;20123;-66
2022/10/01 00:41:29;;;;;;;15.57;12.68;;;10.90;99.90;;;;;;4882476;29;20053;-65
2022/10/01 00:44:02;;;;;;;15.63;11.48;;;10.90;99.90;;;;;;4899962;29;20056;-66
2022/10/01 00:46:42;;;;;;;16.08;11.82;;;10.90;99.90;;;;;;4897063;29;20072;-65
2022/10/01 00:49:16;;;;;;;14.65;11.50;;;10.90;99.90;;;;;;4897887;29;20057;-65
2022/10/01 00:51:46;;;;;;;20.33;12.52;;;10.90;99.90;;;;;;4894635;29;20452;-66
2022/10/01 00:54:21;;;;;;;20.20;14.23;;;10.90;99.90;;;;;;4873185;29;20049;-65
2022/10/01 00:56:53;;;;;;;16.60;13.02;;;10.80;99.90;;;;;;4897620;29;20578;-66
2022/10/01 00:59:19;;;;;;;18.13;12.63;;;10.80;99.90;;;;;;4881819;29;20060;-65
2022/10/01 01:01:45;;;;;;;22.40;13.40;;;10.90;99.90;;;;;;4892511;29;20099;-64
2022/10/01 01:04:19;;;;;;;17.92;13.52;;;10.80;99.90;;;;;;4895508;29;20127;-66
2022/10/01 01:06:56;;;;;;;16.48;13.55;;;10.80;99.90;;;;;;4896302;29;20051;-65
2022/10/01 01:09:29;;;;;;;18.15;13.18;;;10.80;99.90;;;;;;4881611;29;20072;-66
2022/10/01 01:12:19;;;;;;;19.55;13.40;;;10.80;99.90;;;;;;4897207;29;20501;-66
2022/10/01 01:15:06;;;;;;;19.75;14.25;;;10.80;99.90;;;;;;4892572;29;20044;-64
2022/10/01 01:18:08;;;;;;;17.40;11.68;;;10.80;99.90;;;;;;4898443;29;20040;-65
2022/10/01 01:20:50;;;;;;;17.73;13.52;;;10.80;99.90;;;;;;4898179;29;20860;-65
2022/10/01 01:23:15;;;;;;;18.00;14.02;;;10.70;99.90;;;;;;4891488;29;20048;-67
2022/10/01 01:25:50;;;;;;;16.10;11.38;;;10.70;99.90;;;;;;4895164;29;20180;-66
2022/10/01 01:28:43;;;;;;;16.30;12.93;;;10.70;99.90;;;;;;4880036;29;20087;-65
2022/10/01 01:31:16;;;;;;;24.08;12.95;;;10.70;99.90;;;;;;4896474;29;20049;-64
2022/10/01 01:33:44;;;;;;;18.30;12.88;;;10.70;99.90;;;;;;4881416;29;20052;-65
2022/10/01 01:46:35;;;;;;;19.35;13.63;;;10.70;99.90;;;;;;5524618;23;19946;-66
2022/10/01 01:49:03;;;;;;;20.17;13.85;;;10.70;99.90;;;;;;4892733;29;20057;-67
2022/10/01 01:51:39;;;;;;;21.30;13.35;;;10.70;99.90;;;;;;4881055;29;20041;-66
2022/10/01 01:54:05;;;;;;;18.25;13.07;;;10.70;99.90;;;;;;4881594;29;20089;-67
2022/10/01 01:56:31;;;;;;;18.98;12.90;;;10.70;99.90;;;;;;4899221;29;20045;-67
2022/10/01 01:58:58;;;;;;;22.70;14.48;;;10.60;99.90;;;;;;4894294;29;20048;-67
2022/10/01 02:01:36;;;;;;;19.10;13.00;;;10.60;99.90;;;;;;4896199;29;20048;-66
2022/10/01 02:04:06;;;;;;;24.80;12.73;;;10.60;99.90;;;;;;4892825;29;20049;-67
2022/10/01 02:07:14;;;;;;;19.80;12.55;;;10.60;99.90;;;;;;4881710;29;20033;-66
2022/10/01 02:10:01;;;;;;;18.02;11.60;;;10.60;99.90;;;;;;4837155;29;20056;-66
2022/10/01 02:13:00;;;;;;;15.68;12.05;;;10.60;99.90;;;;;;4895205;29;20053;-68
2022/10/01 02:15:44;;;;;;;20.20;12.57;;;10.60;99.90;;;;;;4895103;29;20893;-66
2022/10/01 02:18:27;;;;;;;24.02;14.15;;;10.70;99.90;;;;;;4895594;29;20053;-67
2022/10/01 02:21:01;;;;;;;19.75;13.95;;;10.60;99.90;;;;;;4897655;29;20049;-66
2022/10/01 02:23:35;;;;;;;18.38;12.70;;;10.60;99.90;;;;;;4899597;29;20139;-66
2022/10/01 02:26:07;;;;;;;14.50;10.60;;;10.60;99.90;;;;;;4896844;29;20044;-66
2022/10/01 02:28:36;;;;;;;25.88;13.73;;;10.60;99.90;;;;;;4894140;29;20383;-66
2022/10/01 02:31:03;;;;;;;18.10;12.13;;;10.60;99.90;;;;;;4881715;29;20732;-65
2022/10/01 02:33:31;;;;;;;18.95;11.73;;;10.60;99.90;;;;;;4893593;29;20197;-66
2022/10/01 02:36:00;;;;;;;16.40;11.15;;;10.60;99.90;;;;;;4890236;29;20097;-67
2022/10/01 02:38:27;;;;;;;19.65;11.32;;;10.60;99.90;;;;;;4896465;29;20074;-66
2022/10/01 02:40:56;;;;;;;18.20;11.60;;;10.60;99.90;;;;;;4895626;29;20047;-66
2022/10/01 02:43:31;;;;;;;15.65;10.88;;;10.60;99.90;;;;;;4893879;29;20458;-66
2022/10/01 02:46:04;;;;;;;18.50;10.57;;;10.60;99.90;;;;;;4897023;29;20410;-67
2022/10/01 02:48:29;;;;;;;15.50;9.60;;;10.60;99.90;;;;;;4897833;29;20139;-65
2022/10/01 02:51:14;;;;;;;14.85;10.13;;;10.70;99.90;;;;;;4899347;29;20136;-66
2022/10/01 02:53:45;;;;;;;13.70;9.75;;;10.60;99.90;;;;;;4899300;29;20133;-65
2022/10/01 02:56:13;;;;;;;19.20;11.07;;;10.60;99.90;;;;;;4881627;29;20076;-65
2022/10/01 02:58:40;;;;;;;16.05;10.80;;;10.60;99.90;;;;;;4895992;29;20061;-65
2022/10/01 03:01:06;;;;;;;12.75;9.15;;;10.60;99.90;;;;;;4894037;29;20048;-67
2022/10/01 03:03:31;;;;;;;15.27;9.85;;;10.60;99.90;;;;;;4896911;29;20108;-65
2022/10/01 03:05:57;;;;;;;15.65;10.68;;;10.60;99.90;;;;;;4896103;29;20040;-66
2022/10/01 03:08:22;;;;;;;15.30;9.80;;;10.60;99.90;;;;;;4899658;29;20084;-65
2022/10/01 03:10:49;;;;;;;14.40;9.30;;;10.60;99.90;;;;;;4897593;29;20049;-66
2022/10/01 03:13:16;;;;;;;14.45;10.15;;;10.60;99.90;;;;;;4897437;29;20084;-67
2022/10/01 03:15:45;;;;;;;16.17;10.15;;;10.60;99.90;;;;;;4881283;29;20055;-66
2022/10/01 03:18:11;;;;;;;10.88;8.20;;;10.70;99.90;;;;;;4890990;29;20048;-66
2022/10/01 03:20:36;;;;;;;13.52;9.68;;;10.70;99.90;;;;;;4898742;29;20070;-66
2022/10/01 03:23:02;;;;;;;14.50;9.85;;;10.70;99.90;;;;;;4900305;29;20152;-66
2022/10/01 03:25:28;;;;;;;14.75;9.57;;;10.70;99.90;;;;;;4893448;29;20151;-65
2022/10/01 03:27:53;;;;;;;13.77;9.20;;;10.70;99.90;;;;;;4882021;29;20092;-66
2022/10/01 03:30:19;;;;;;;10.35;8.07;;;10.70;99.90;;;;;;4897004;29;20067;-66
2022/10/01 03:32:45;;;;;;;13.40;8.88;;;10.70;99.90;;;;;;4878896;29;20404;-65
2022/10/01 03:35:11;;;;;;;13.13;9.38;;;10.70;99.90;;;;;;4892646;29;20036;-65
2022/10/01 03:37:36;;;;;;;11.35;7.53;;;10.80;99.90;;;;;;4894917;29;20052;-67
2022/10/01 03:40:02;;;;;;;10.32;7.95;;;10.80;99.90;;;;;;4897520;29;20085;-66
2022/10/01 03:42:28;;;;;;;11.73;8.40;;;10.80;99.90;;;;;;4898332;29;20107;-66
2022/10/01 03:44:54;;;;;;;11.90;8.32;;;10.80;99.90;;;;;;4889187;29;20135;-65
2022/10/01 03:47:23;;;;;;;10.48;7.43;;;10.80;99.90;;;;;;4905868;29;20068;-65
2022/10/01 03:49:49;;;;;;;9.88;7.35;;;10.80;99.90;;;;;;4908787;29;20049;-65
2022/10/01 03:52:14;;;;;;;10.15;7.00;;;10.80;99.90;;;;;;4909368;29;20041;-65
2022/10/01 03:54:40;;;;;;;9.57;7.03;;;10.80;99.90;;;;;;4905613;29;20052;-66
2022/10/01 03:57:06;;;;;;;11.10;7.18;;;10.80;99.90;;;;;;4903313;29;20055;-66
2022/10/01 03:59:31;;;;;;;9.20;6.65;;;10.80;99.90;;;;;;4904669;29;20045;-66
2022/10/01 04:01:57;;;;;;;9.68;5.47;;;10.90;99.90;;;;;;4905070;29;20063;-65
2022/10/01 04:04:23;;;;;;;7.22;5.50;;;10.90;99.90;;;;;;4895916;29;20525;-66
2022/10/01 04:06:48;;;;;;;8.80;5.47;;;10.90;99.90;;;;;;4912916;29;20127;-65
2022/10/01 04:09:14;;;;;;;7.45;5.50;;;10.90;99.90;;;;;;4908186;29;20049;-67
2022/10/01 04:11:39;;;;;;;8.23;5.45;;;10.90;99.90;;;;;;4901874;29;20045;-66
2022/10/01 04:14:05;;;;;;;7.90;5.45;;;10.90;99.90;;;;;;4882363;29;20451;-65
2022/10/01 04:16:33;;;;;;;7.40;5.60;;;10.90;99.90;;;;;;4902089;29;20053;-66
2022/10/01 04:18:59;;;;;;;;;;;10.90;99.90;;;;;;4898161;29;20116;-66
2022/10/01 04:21:24;;;;;;;8.27;5.70;;;10.90;99.90;;;;;;4898774;29;19963;-65
2022/10/01 04:23:51;;;;;;;7.07;4.88;;;11.00;99.90;;;;;;4896101;29;20056;-66
2022/10/01 04:26:17;;;;;;;8.13;5.25;;;10.90;99.90;;;;;;4899903;29;20044;-66
2022/10/01 04:28:45;;;;;;;8.63;5.10;;;11.00;99.90;;;;;;4898332;29;20055;-66
2022/10/01 04:31:24;;;;;;;6.03;4.03;;;11.00;99.90;;;;;;4898760;29;20047;-65
2022/10/01 04:33:53;;;;;;;;;;;11.00;99.90;;;;;;4901379;29;20495;-64
2022/10/01 04:36:20;;;;;;;5.20;3.60;;;11.00;99.90;;;;;;4896027;29;19924;-66
2022/10/01 04:38:46;;;;;;;6.18;4.15;;;11.00;99.90;;;;;;4890628;29;20099;-67
2022/10/01 04:41:13;;;;;;;4.65;3.92;;;11.00;99.90;;;;;;4895129;29;20105;-68
2022/10/01 04:43:39;;;;;;;4.22;3.47;;;11.00;99.90;;;;;;4895312;29;20124;-66
2022/10/01 04:46:05;;;;;;;7.25;4.85;;;11.00;99.90;;;;;;4892845;29;20056;-67
2022/10/01 04:48:30;;;;;;;5.90;4.03;;;11.10;99.90;;;;;;4880754;29;20621;-66
2022/10/01 04:50:56;;;;;;;6.68;4.40;;;11.10;99.90;;;;;;4898821;29;20087;-66
2022/10/01 04:53:21;;;;;;;6.78;3.78;;;11.10;99.90;;;;;;4900572;29;20056;-67
2022/10/01 04:55:47;;;;;;;6.13;4.72;;;11.10;99.90;;;;;;4882013;29;20052;-63
2022/10/01 04:58:13;;;;;;;7.45;5.30;;;11.10;99.90;;;;;;4902044;29;20044;-66
2022/10/01 05:00:38;;;;;;;5.05;3.92;;;11.10;99.90;;;;;;4898494;29;20104;-66
2022/10/01 05:03:04;;;;;;;5.38;4.43;;;11.10;99.90;;;;;;4901489;29;20044;-64
2022/10/01 05:05:31;;;;;;;5.90;4.40;;;11.20;99.90;;;;;;4896467;29;20056;-65
2022/10/01 05:07:57;;;;;;;6.40;4.45;;;11.20;99.90;;;;;;4898331;29;20044;-65
2022/10/01 05:10:23;;;;;;;7.03;5.20;;;11.20;99.90;;;;;;4866547;29;20059;-67
2022/10/01 05:12:50;;;;;;;5.00;4.45;;;11.20;99.90;;;;;;4880363;29;20514;-65
2022/10/01 05:15:16;;;;;;;5.80;4.30;;;11.20;99.90;;;;;;4894532;29;20051;-65
2022/10/01 05:17:42;;;;;;;7.95;4.63;;;11.20;99.90;;;;;;4902829;29;20132;-64
2022/10/01 05:20:18;;;;;;;6.90;5.15;;;11.20;99.90;;;;;;4899061;29;20123;-64
2022/10/01 05:22:46;;;;;;;7.53;4.80;;;11.20;99.90;;;;;;4894242;29;20088;-64
2022/10/01 05:25:12;;;;;;;7.47;5.40;;;11.30;99.90;;;;;;4886720;29;20458;-64
2022/10/01 05:27:39;;;;;;;7.15;5.50;;;11.30;99.90;;;;;;4894423;29;20149;-64
2022/10/01 05:30:07;;;;;;;6.95;5.43;;;11.30;99.90;;;;;;4879998;29;20076;-65
2022/10/01 05:32:33;;;;;;;7.20;5.75;;;11.30;99.90;;;;;;4896420;29;20391;-64
2022/10/01 05:34:59;;;;;;;8.38;4.90;;;11.30;99.90;;;;;;4897800;29;20064;-66
2022/10/01 05:37:24;;;;;;;7.65;5.80;;;11.30;99.90;;;;;;4861381;29;20037;-65
2022/10/01 05:39:50;;;;;;;7.72;5.28;;;11.30;99.90;;;;;;4880282;29;20044;-65
2022/10/01 05:42:16;;;;;;;6.40;5.40;;;11.30;99.90;;;;;;4882511;29;20057;-65
2022/10/01 05:44:45;;;;;;;8.02;5.68;;;11.30;99.90;;;;;;4877930;29;20103;-65
2022/10/01 05:47:12;;;;;;;12.38;6.05;;;11.30;99.90;;;;;;4895157;29;20099;-65
2022/10/01 05:49:41;;;;;;;7.13;5.95;;;11.40;99.90;;;;;;4864447;29;20041;-64
2022/10/01 05:52:08;;;;;;;12.73;7.30;;;11.40;99.90;;;;;;4893885;29;20076;-64
2022/10/01 05:54:34;;;;;;;10.88;6.10;;;11.40;99.90;;;;;;4897689;29;20139;-65
2022/10/01 05:57:00;;;;;;;9.55;7.60;;;11.40;99.90;;;;;;4896572;29;20152;-65
2022/10/01 05:59:25;;;;;;;13.80;7.60;;;11.40;99.90;;;;;;4898776;29;20502;-65
2022/10/01 06:01:51;;;;;;;8.70;7.22;;;11.50;99.90;;;;;;4895399;29;20059;-65
2022/10/01 06:04:17;;;;;;;12.50;7.72;;;11.50;99.90;;;;;;4892013;29;20124;-66
2022/10/01 06:06:42;;;;;;;9.70;7.35;;;11.40;99.90;;;;;;4892307;29;20045;-66
2022/10/01 06:09:08;;;;;;;9.40;7.25;;;11.50;99.90;;;;;;4895516;29;20045;-65
2022/10/01 06:11:38;;;;;;;10.68;8.50;;;11.60;99.90;;;;;;4895553;29;20101;-65
2022/10/01 06:14:04;;;;;;;11.23;7.70;;;11.60;99.90;;;;;;4896094;29;20055;-65
2022/10/01 06:16:30;;;;;;;10.32;8.25;;;11.60;99.90;;;;;;4899288;29;20075;-66
2022/10/01 06:18:56;;;;;;;13.25;9.57;;;11.60;99.90;;;;;;4897952;29;20085;-65
2022/10/01 06:21:25;;;;;;;14.68;9.27;;;11.70;99.90;;;;;;4894222;29;20391;-66
2022/10/01 06:23:52;;;;;;;15.55;9.40;;;11.70;99.90;;;;;;4897098;29;20507;-65
2022/10/01 06:26:18;;;;;;;17.38;10.70;;;11.80;99.90;;;;;;4894867;29;20041;-66
2022/10/01 06:28:44;;;;;;;19.52;10.13;;;11.80;99.90;;;;;;4895342;29;20125;-66
2022/10/01 06:31:10;;;;;;;13.32;9.30;;;11.80;99.90;;;;;;4891727;29;20076;-66
2022/10/01 06:33:36;;;;;;;15.82;11.15;;;11.90;99.90;;;;;;4893126;29;20447;-66
2022/10/01 06:36:03;;;;;;;16.38;10.10;;;11.80;99.90;;;;;;4894969;29;20189;-65
2022/10/01 06:38:29;;;;;;;17.05;10.95;;;11.80;99.90;;;;;;4897234;29;20052;-66
2022/10/01 06:40:57;;;;;;;19.15;10.13;;;11.80;99.90;;;;;;4887698;29;20048;-65
2022/10/01 06:43:24;;;;;;;17.67;10.48;;;11.80;99.90;;;;;;4890577;29;20060;-66
2022/10/01 06:45:50;;;;;;;16.58;9.93;;;11.80;99.90;;;;;;4889229;29;20040;-65
2022/10/01 06:48:18;;;;;;;21.90;10.98;;;11.90;99.90;;;;;;4881110;29;20048;-66
2022/10/01 06:50:45;;;;;;;17.20;11.48;;;11.90;99.90;;;;;;4896012;29;20072;-66
2022/10/01 06:53:14;;;;;;;28.35;14.48;;;11.90;99.90;;;;;;4898672;29;20048;-65
2022/10/01 06:55:40;;;;;;;17.33;11.90;;;11.90;99.90;;;;;;4902194;29;20048;-66
2022/10/01 06:58:11;;;;;;;15.35;10.38;;;11.90;99.90;;;;;;4895662;29;20049;-66
2022/10/01 07:00:37;;;;;;;18.92;10.85;;;12.00;99.90;;;;;;4898855;29;20048;-65
2022/10/01 07:03:10;;;;;;;16.67;10.45;;;12.00;99.90;;;;;;4892646;29;20155;-66
2022/10/01 07:05:37;;;;;;;16.10;10.77;;;12.20;99.90;;;;;;4896368;29;20127;-65
2022/10/01 07:08:03;;;;;;;23.42;13.73;;;12.20;99.90;;;;;;4899246;29;20044;-65
2022/10/01 07:10:28;;;;;;;18.75;10.95;;;12.40;99.90;;;;;;4899304;29;20096;-65
2022/10/01 07:12:54;;;;;;;19.58;12.77;;;12.50;99.90;;;;;;4881898;29;20048;-65
2022/10/01 07:15:21;;;;;;;20.20;13.15;;;12.60;99.90;;;;;;4901969;29;20080;-65
2022/10/01 07:17:49;;;;;;;22.95;12.23;;;12.60;99.90;;;;;;4897915;29;20177;-65
2022/10/01 07:20:16;;;;;;;18.38;11.15;;;12.70;99.90;;;;;;4897218;29;20056;-66
2022/10/01 07:22:43;;;;;;;23.00;10.43;;;12.80;99.90;;;;;;4897166;29;20108;-66
2022/10/01 07:25:08;;;;;;;19.42;10.80;;;12.80;99.90;;;;;;4888914;29;20487;-66
2022/10/01 07:27:35;;;;;;;15.13;10.13;;;12.80;99.90;;;;;;4879498;29;20123;-65
2022/10/01 07:30:00;;;;;;;23.27;9.95;;;12.80;99.90;;;;;;4893575;29;20044;-65
2022/10/01 07:32:26;;;;;;;16.48;9.52;;;12.80;99.90;;;;;;4894130;29;20402;-66
2022/10/01 07:34:51;;;;;;;24.20;10.07;;;12.80;99.90;;;;;;4896417;29;20055;-65
2022/10/01 07:37:17;;;;;;;24.27;9.77;;;13.10;99.90;;;;;;4879154;29;20116;-66
2022/10/01 07:39:43;;;;;;;15.95;8.38;;;12.80;99.90;;;;;;4896891;29;20052;-66
2022/10/01 07:42:09;;;;;;;22.90;9.77;;;12.80;99.90;;;;;;4895015;29;20041;-66
2022/10/01 07:44:34;;;;;;;20.52;8.38;;;12.80;99.90;;;;;;4898895;29;20049;-67
2022/10/01 07:47:00;;;;;;;16.45;8.70;;;12.80;99.90;;;;;;4895008;29;20056;-67
2022/10/01 07:49:26;;;;;;;20.80;8.35;;;13.00;99.90;;;;;;4894996;29;20127;-66
2022/10/01 07:51:57;;;;;;;15.82;8.32;;;13.30;99.90;;;;;;4882454;29;20068;-65
2022/10/01 07:54:23;;;;;;;17.83;8.00;;;13.20;99.90;;;;;;4889315;29;20056;-67
2022/10/01 07:56:54;;;;;;;22.83;7.95;;;13.40;99.90;;;;;;4889414;29;20045;-66
2022/10/01 07:59:21;;;;;;;16.83;7.00;;;13.50;99.90;;;;;;4895844;29;20045;-66
2022/10/01 08:01:50;;;;;;;15.57;4.80;;;13.70;99.90;;;;;;4897535;29;20071;-66
2022/10/01 08:07:01;;;;;;;14.48;4.30;;;14.10;99.90;;;;;;4896817;29;20052;-65
2022/10/01 08:09:27;;;;;;;18.95;3.95;;;14.20;99.90;;;;;;4897105;29;20518;-65
2022/10/01 08:11:53;;;;;;;14.07;4.20;;;14.40;99.90;;;;;;4893672;29;20139;-65
2022/10/01 08:14:19;;;;;;;14.35;4.22;;;14.50;99.90;;;;;;4892645;29;20534;-64
2022/10/01 08:16:44;;;;;;;22.02;3.40;;;14.60;99.90;;;;;;4891540;29;20049;-65
2022/10/01 08:19:11;;;;;;;18.98;4.03;;;14.70;99.90;;;;;;4874931;29;20491;-65
2022/10/01 08:21:37;;;;;;;19.42;4.20;;;14.70;99.90;;;;;;4896209;29;20143;-65
2022/10/01 08:24:03;;;;;;;16.77;3.08;;;14.80;99.90;;;;;;4900089;29;20109;-65
2022/10/01 08:26:29;;;;;;;15.20;3.45;;;14.90;99.90;;;;;;4870129;29;20049;-65
2022/10/01 08:28:55;;;;;;;16.30;3.22;;;15.00;99.90;;;;;;4885984;29;20047;-66
2022/10/01 08:31:21;;;;;;;10.77;2.72;;;15.10;99.90;;;;;;4894767;29;20041;-65
2022/10/01 08:33:47;;;;;;;15.43;2.95;;;15.20;99.90;;;;;;4899671;29;20096;-65
2022/10/01 08:36:12;;;;;;;17.17;2.97;;;15.30;99.90;;;;;;4896980;29;20056;-64
2022/10/01 08:38:39;;;;;;;13.95;2.90;;;15.40;99.90;;;;;;4890732;29;20048;-65
2022/10/01 08:41:43;;;;;;;13.95;2.70;;;15.50;99.90;;;;;;4903259;29;20088;-64
2022/10/01 08:44:18;;;;;;;16.52;3.25;;;15.70;99.90;;;;;;4902494;29;20078;-65
2022/10/01 08:46:45;;;;;;;20.95;2.83;;;15.80;99.90;;;;;;4886828;29;20112;-66
2022/10/01 08:49:35;;;;;;;13.30;2.67;;;16.00;99.90;;;;;;4901543;29;20052;-65
2022/10/01 08:52:33;;;;;;;17.60;3.55;;;16.20;99.90;;;;;;4906083;29;20486;-66
2022/10/01 08:55:01;;;;;;;17.90;2.92;;;16.40;99.90;;;;;;4889144;29;20641;-65
2022/10/01 08:57:45;;;;;;;14.65;2.90;;;16.50;99.90;;;;;;4900464;29;20056;-67
2022/10/01 09:00:14;;;;;;;12.90;2.58;;;16.70;99.90;;;;;;4901535;29;20372;-66
2022/10/01 09:02:42;;;;;;;18.10;2.88;;;16.80;99.90;;;;;;4899938;29;20060;-66
2022/10/01 09:05:21;;;;;;;13.77;2.60;;;16.90;99.90;;;;;;4895762;29;20100;-67
2022/10/01 09:07:55;;;;;;;;;;;16.80;99.90;;;;;;4892282;29;20056;-66
2022/10/01 09:10:26;;;;;;;15.65;3.38;;;16.80;99.90;;;;;;4895379;29;19924;-66
2022/10/01 09:13:08;;;;;;;13.05;2.97;;;16.70;99.90;;;;;;4900091;29;20111;-65
2022/10/01 09:15:58;;;;;;;18.80;3.38;;;16.50;99.90;;;;;;4903005;29;20064;-66
2022/10/01 09:18:47;;;;;;;18.38;3.22;;;16.40;99.90;;;;;;4899843;29;20058;-65
2022/10/01 09:21:29;;;;;;;17.55;2.97;;;16.30;99.90;;;;;;4866871;29;20392;-65
2022/10/01 09:24:14;;;;;;;14.15;3.13;;;16.30;99.90;;;;;;4901331;29;20048;-65
2022/10/01 09:26:45;;;;;;;15.80;2.97;;;16.50;99.90;;;;;;4899139;29;20483;-66
2022/10/01 09:29:22;;;;;;;16.63;3.35;;;16.60;99.90;;;;;;4901753;29;20040;-65
2022/10/01 09:31:51;;;;;;;12.40;2.78;;;16.90;99.90;;;;;;4885397;29;20056;-64
2022/10/01 09:34:39;;;;;;;10.80;2.58;;;17.00;99.90;;;;;;4901326;29;20048;-66
2022/10/01 09:37:20;;;;;;;10.05;3.03;;;17.20;99.90;;;;;;4901941;29;20052;-65
2022/10/01 09:39:55;;;;;;;14.88;2.67;;;17.40;99.90;;;;;;4908882;29;20052;-65
2022/10/01 09:42:25;;;;;;;11.07;2.42;;;17.40;99.90;;;;;;4893883;29;20044;-65
2022/10/01 09:44:53;;;;;;;16.42;2.95;;;17.50;99.90;;;;;;4903757;29;20423;-66
2022/10/01 09:47:21;;;;;;;13.88;2.50;;;17.60;99.90;;;;;;4913937;29;20066;-66
2022/10/01 09:49:48;;;;;;;15.35;2.80;;;17.80;99.90;;;;;;4902133;29;20116;-65
2022/10/01 09:52:38;;;;;;;10.02;2.00;;;17.90;99.90;;;;;;4901472;29;20044;-66
2022/10/01 09:55:38;;;;;;;8.25;1.80;;;17.90;99.90;;;;;;4884172;29;20057;-66
2022/10/01 09:58:11;;;;;;;6.30;2.13;;;17.70;99.90;;;;;;4896392;29;20052;-66
2022/10/01 10:00:39;;;;;;;9.60;1.95;;;17.20;99.90;;;;;;4897643;29;20048;-65
2022/10/01 10:03:04;;;;;;;8.70;2.40;;;16.90;99.90;;;;;;4897366;29;20507;-65
2022/10/01 10:05:40;;;;;;;13.20;2.20;;;16.20;99.90;;;;;;4899515;29;20083;-66
2022/10/01 10:08:14;;;;;;;9.45;2.10;;;16.00;99.90;;;;;;4887079;29;20040;-66
2022/10/01 10:10:50;;;;;;;8.73;1.90;;;15.70;99.90;;;;;;4899667;29;20056;-66
2022/10/01 10:13:25;;;;;;;8.48;2.17;;;15.40;99.90;;;;;;4905114;29;20045;-65
2022/10/01 10:15:57;;;;;;;8.20;2.83;;;15.20;99.90;;;;;;4905065;29;20152;-65
2022/10/01 10:18:29;;;;;;;10.60;2.85;;;15.00;99.90;;;;;;4900514;29;20068;-66
2022/10/01 10:20:56;;;;;;;10.50;2.85;;;14.80;99.90;;;;;;4900724;29;20127;-66
2022/10/01 10:23:28;;;;;;;19.60;3.97;;;14.70;99.90;;;;;;4901338;29;20071;-66
2022/10/01 10:26:06;;;;;;;14.38;2.67;;;14.50;99.90;;;;;;4897795;29;20047;-66
2022/10/01 10:28:46;;;;;;;12.23;2.38;;;14.20;99.90;;;;;;4895435;29;20079;-64
2022/10/01 10:31:20;;;;;;;10.02;2.40;;;14.00;99.90;;;;;;4894609;29;20421;-65
2022/10/01 10:34:25;;;;;;;10.68;3.30;;;13.70;99.90;;;;;;4899061;29;20055;-66
2022/10/01 10:36:56;;;;;;;11.40;2.80;;;13.50;99.90;;;;;;4894387;29;20052;-66
2022/10/01 10:39:30;;;;;;;21.20;3.65;;;13.50;99.90;;;;;;4896764;29;20059;-66
2022/10/01 10:41:58;;;;;;;12.32;3.42;;;13.40;99.90;;;;;;4896110;29;20055;-66
2022/10/01 10:44:29;;;;;;;10.63;3.30;;;13.30;99.90;;;;;;4862243;29;20048;-67
2022/10/01 10:46:59;;;;;;;12.68;3.13;;;13.20;99.90;;;;;;4893207;29;20144;-67
2022/10/01 10:49:50;;;;;;;9.07;3.10;;;13.20;99.90;;;;;;4892603;29;20494;-67
2022/10/01 10:52:29;;;;;;;11.38;3.25;;;13.20;99.90;;;;;;4889356;29;20510;-66
2022/10/01 10:54:57;;;;;;;5.68;2.95;;;13.20;99.90;;;;;;4880618;29;20442;-66
2022/10/01 10:57:31;;;;;;;9.73;3.40;;;13.20;99.90;;;;;;4896101;29;20522;-66
2022/10/01 11:00:05;;;;;;;10.25;3.17;;;13.20;99.90;;;;;;4897250;29;20111;-66
2022/10/01 11:02:32;;;;;;;8.90;3.50;;;13.20;99.90;;;;;;4881391;29;20052;-66
2022/10/01 11:05:02;;;;;;;12.40;4.60;;;13.30;99.90;;;;;;4875437;29;20404;-66
2022/10/01 11:07:29;;;;;;;15.63;4.30;;;13.40;99.90;;;;;;4896845;29;20052;-66
2022/10/01 11:10:20;;;;;;;9.15;4.30;;;13.70;99.90;;;;;;4867104;29;20131;-66
2022/10/01 11:13:07;;;;;;;11.35;4.60;;;13.80;99.90;;;;;;4898219;29;20056;-66
2022/10/01 11:15:43;;;;;;;10.30;3.45;;;13.80;99.90;;;;;;4890160;29;20102;-66
2022/10/01 11:18:16;;;;;;;10.38;3.85;;;13.90;99.90;;;;;;4884384;29;20057;-65
2022/10/01 11:21:10;;;;;;;9.32;3.75;;;13.80;99.90;;;;;;4893516;29;20041;-66
2022/10/01 11:24:16;;;;;;;11.35;3.60;;;13.90;99.90;;;;;;4895118;29;20090;-67
2022/10/01 11:26:56;;;;;;;8.35;3.15;;;14.10;99.90;;;;;;4879823;29;20139;-65
2022/10/01 11:29:27;;;;;;;10.48;2.92;;;14.50;99.90;;;;;;4897355;29;20056;-66
2022/10/01 11:32:15;;;;;;;15.30;3.30;;;14.80;99.90;;;;;;4898508;29;20048;-68
2022/10/01 11:34:50;;;;;;;11.45;2.58;;;15.30;99.90;;;;;;4876691;29;20476;-65
2022/10/01 11:37:32;;;;;;;7.13;2.22;;;15.90;99.90;;;;;;4885936;29;20077;-66
2022/10/01 11:40:00;;;;;;;8.63;2.13;;;16.40;99.90;;;;;;4900153;29;20056;-68
2022/10/01 11:42:34;;;;;;;8.82;2.13;;;16.80;99.90;;;;;;4900851;29;20096;-66
2022/10/01 11:45:22;;;;;;;10.63;2.35;;;17.00;99.90;;;;;;4901710;29;20415;-66
2022/10/01 11:47:53;;;;;;;8.23;2.20;;;17.10;99.90;;;;;;4901710;29;20068;-65
2022/10/01 11:50:41;;;;;;;9.10;2.78;;;17.10;99.90;;;;;;4900051;29;20058;-67
2022/10/01 11:53:14;;;;;;;11.50;2.90;;;16.90;99.90;;;;;;4898072;29;20051;-66
2022/10/01 11:58:51;;;;;;;11.02;2.35;;;16.60;99.90;;;;;;4898889;29;20519;-66
2022/10/01 12:01:27;;;;;;;8.48;2.10;;;16.40;99.90;;;;;;4906132;29;20048;-67
2022/10/01 12:03:52;;;;;;;13.18;2.20;;;16.20;99.90;;;;;;4897700;29;20067;-65
2022/10/01 12:06:29;;;;;;;13.40;2.40;;;16.10;99.90;;;;;;4890465;29;20036;-66
2022/10/01 12:09:06;;;;;;;14.13;2.45;;;16.00;99.90;;;;;;4906502;29;20056;-67
2022/10/01 12:11:57;;;;;;;13.77;2.55;;;16.00;99.90;;;;;;4898551;29;20049;-66
2022/10/01 12:14:36;;;;;;;11.38;3.08;;;16.00;99.90;;;;;;4905056;29;20099;-64
2022/10/01 12:17:11;;;;;;;18.50;3.50;;;16.00;99.90;;;;;;4905766;29;20049;-67
2022/10/01 12:19:41;;;;;;;12.82;2.30;;;16.00;99.90;;;;;;4902122;29;20072;-67
2022/10/01 12:22:16;;;;;;;20.17;3.28;;;16.00;99.90;;;;;;4901778;29;20100;-66
2022/10/01 12:24:44;;;;;;;16.67;3.55;;;16.00;99.90;;;;;;4908062;29;20380;-66
2022/10/01 12:27:34;;;;;;;16.30;2.55;;;16.30;99.90;;;;;;4907081;29;20079;-66
2022/10/01 12:30:19;;;;;;;12.48;2.42;;;16.70;99.90;;;;;;4906943;29;20119;-66
2022/10/01 12:32:57;;;;;;;18.98;2.83;;;16.90;99.90;;;;;;4909578;29;20109;-68
2022/10/01 12:35:46;;;;;;;9.82;2.65;;;16.80;99.90;;;;;;4900613;29;20048;-67
2022/10/01 12:38:33;;;;;;;13.60;2.70;;;16.80;99.90;;;;;;4881263;29;20048;-67
2022/10/01 12:41:15;;;;;;;20.58;3.17;;;16.70;99.90;;;;;;4907305;29;20040;-65
2022/10/01 12:43:57;;;;;;;11.90;2.80;;;16.60;99.90;;;;;;4908488;29;20059;-65
2022/10/01 12:46:42;;;;;;;8.73;2.20;;;16.50;99.90;;;;;;4909199;29;20065;-66
2022/10/01 12:49:27;;;;;;;17.13;2.30;;;16.50;99.90;;;;;;4907011;29;20056;-64
2022/10/01 12:52:32;;;;;;;10.75;2.33;;;16.50;99.90;;;;;;4904557;29;20131;-65
2022/10/01 12:55:07;;;;;;;14.48;2.33;;;16.40;99.90;;;;;;4882429;29;20056;-66
2022/10/01 12:57:51;;;;;;;12.25;2.08;;;16.20;99.90;;;;;;4902114;29;20048;-65
2022/10/01 13:00:19;;;;;;;13.45;2.42;;;16.10;99.90;;;;;;4906427;29;20495;-65
2022/10/01 13:02:53;;;;;;;;;;;15.80;99.90;;;;;;4904978;29;20052;-66
2022/10/01 13:05:44;;;;;;;8.88;1.55;;;15.60;99.90;;;;;;4888743;29;19923;-66
2022/10/01 13:08:25;;;;;;;8.60;1.73;;;15.30;99.90;;;;;;4903335;29;20041;-66
2022/10/01 13:11:09;;;;;;;8.93;1.73;;;15.20;99.90;;;;;;4875038;29;20052;-64
2022/10/01 13:13:37;;;;;;;11.45;1.88;;;15.00;99.90;;;;;;4903146;29;20037;-65
2022/10/01 13:16:24;;;;;;;6.70;1.75;;;14.80;99.90;;;;;;4884304;29;20045;-64
2022/10/01 13:18:56;;;;;;;9.77;1.67;;;14.70;99.90;;;;;;4882310;29;20060;-65